createdAt,value
2023-03-07T00:02:00.794Z,9.90
2023-03-07T00:04:29.989Z,13.23
2023-03-07T00:06:58.014Z,12.25
2023-03-07T00:09:25.891Z,9.52
2023-03-07T00:11:53.816Z,13.00
2023-03-07T00:14:21.711Z,10.10
2023-03-07T00:16:51.141Z,9.80
2023-03-07T00:19:19.533Z,9.45
2023-03-07T00:21:48.805Z,10.07
2023-03-07T00:24:16.694Z,11.50
2023-03-07T00:26:44.546Z,10.45
2023-03-07T00:29:12.390Z,9.63
2023-03-07T00:31:40.296Z,11.75
2023-03-07T00:34:08.166Z,10.98
2023-03-07T00:36:36.066Z,10.65
2023-03-07T00:39:05.316Z,9.63
2023-03-07T00:41:33.167Z,9.85
2023-03-07T00:44:01.060Z,11.07
2023-03-07T00:46:29.150Z,10.63
2023-03-07T00:48:57.124Z,9.23
2023-03-07T00:51:25.173Z,10.27
2023-03-07T00:53:53.131Z,11.45
2023-03-07T00:56:23.976Z,10.40
2023-03-07T00:58:52.025Z,11.90
2023-03-07T01:01:20.996Z,10.27
2023-03-07T01:03:49.955Z,10.82
2023-03-07T01:06:19.117Z,9.43
2023-03-07T01:08:47.447Z,10.13
2023-03-07T01:11:16.630Z,8.95
2023-03-07T01:13:45.973Z,8.77
2023-03-07T01:16:15.697Z,9.75
2023-03-07T01:18:44.291Z,10.63
2023-03-07T01:21:16.859Z,11.70
2023-03-07T01:23:45.013Z,9.82
2023-03-07T01:26:14.537Z,10.38
2023-03-07T01:28:42.713Z,9.52
2023-03-07T01:31:12.301Z,10.10
2023-03-07T01:33:41.718Z,8.35
2023-03-07T01:36:16.991Z,10.15
2023-03-07T01:38:45.296Z,9.30
2023-03-07T01:41:13.549Z,8.95
2023-03-07T01:43:42.221Z,10.40
2023-03-07T01:46:43.792Z,9.27
2023-03-07T01:49:23.854Z,9.15
2023-03-07T01:51:59.883Z,10.05
2023-03-07T01:54:27.959Z,9.50
2023-03-07T01:56:55.897Z,8.55
2023-03-07T01:59:26.105Z,9.32
2023-03-07T02:01:55.338Z,11.93
2023-03-07T02:04:25.191Z,8.38
2023-03-07T02:06:53.203Z,9.40
2023-03-07T02:09:22.058Z,8.48
2023-03-07T02:11:50.012Z,8.82
2023-03-07T02:14:18.015Z,9.98
2023-03-07T02:16:45.985Z,9.18
2023-03-07T02:19:36.684Z,9.85
2023-03-07T02:22:09.604Z,11.02
2023-03-07T02:24:41.850Z,8.70
2023-03-07T02:27:11.096Z,8.35
2023-03-07T02:29:40.602Z,8.32
2023-03-07T02:32:09.060Z,9.20
2023-03-07T02:34:36.980Z,9.52
2023-03-07T02:37:17.406Z,8.77
2023-03-07T02:39:46.327Z,9.73
2023-03-07T02:42:19.062Z,8.00
2023-03-07T02:44:57.075Z,8.32
2023-03-07T02:47:25.733Z,8.70
2023-03-07T02:49:54.217Z,9.40
2023-03-07T02:52:22.851Z,9.80
2023-03-07T02:54:50.903Z,7.55
2023-03-07T02:57:20.609Z,8.57
2023-03-07T02:59:48.677Z,9.60
2023-03-07T03:02:16.607Z,7.63
2023-03-07T03:04:44.602Z,8.68
2023-03-07T03:07:12.653Z,8.75
2023-03-07T03:09:40.570Z,8.50
2023-03-07T03:12:09.057Z,9.20
2023-03-07T03:14:39.244Z,9.18
2023-03-07T03:17:07.204Z,11.45
2023-03-07T03:19:35.199Z,9.32
2023-03-07T03:22:03.471Z,8.88
2023-03-07T03:24:39.370Z,9.75
2023-03-07T03:27:08.070Z,7.90
2023-03-07T03:29:35.929Z,8.82
2023-03-07T03:32:08.146Z,7.63
2023-03-07T03:34:36.456Z,8.07
2023-03-07T03:37:04.455Z,9.20
2023-03-07T03:39:32.842Z,7.97
2023-03-07T03:42:01.327Z,8.48
2023-03-07T03:44:29.691Z,8.52
2023-03-07T03:46:58.259Z,7.65
2023-03-07T03:49:28.269Z,8.90
2023-03-07T03:51:56.870Z,7.68
2023-03-07T03:54:25.260Z,10.18
2023-03-07T03:56:54.588Z,8.93
2023-03-07T03:59:23.411Z,7.22
2023-03-07T04:01:52.085Z,8.27
2023-03-07T04:04:20.577Z,10.27
2023-03-07T04:06:49.926Z,10.30
2023-03-07T04:09:18.399Z,8.30
2023-03-07T04:11:48.523Z,7.63
2023-03-07T04:14:16.601Z,8.52
2023-03-07T04:16:44.640Z,8.75
2023-03-07T04:19:12.924Z,9.88
2023-03-07T04:21:41.183Z,8.25
2023-03-07T04:24:11.147Z,9.27
2023-03-07T04:26:39.113Z,9.05
2023-03-07T04:29:07.043Z,9.60
2023-03-07T04:31:41.988Z,8.73
2023-03-07T04:34:12.045Z,9.05
2023-03-07T04:36:40.055Z,10.13
2023-03-07T04:39:07.933Z,10.05
2023-03-07T04:41:37.848Z,10.40
2023-03-07T04:44:10.738Z,9.35
2023-03-07T04:46:38.640Z,10.10
2023-03-07T04:49:06.630Z,9.75
2023-03-07T04:51:34.846Z,10.60
2023-03-07T04:54:02.860Z,9.95
2023-03-07T04:56:30.917Z,8.70
2023-03-07T04:59:00.816Z,9.88
2023-03-07T05:01:28.861Z,10.57
2023-03-07T05:03:57.498Z,10.27
2023-03-07T05:06:25.701Z,10.70
2023-03-07T05:08:53.903Z,9.70
2023-03-07T05:11:21.929Z,11.90
2023-03-07T05:13:51.012Z,10.27
2023-03-07T05:16:22.543Z,9.27
2023-03-07T05:18:50.819Z,10.77
2023-03-07T05:21:19.472Z,9.55
2023-03-07T05:23:47.391Z,11.45
2023-03-07T05:26:15.356Z,10.02
2023-03-07T05:28:43.811Z,10.43
2023-03-07T05:31:11.771Z,11.80
2023-03-07T05:33:42.635Z,10.05
2023-03-07T05:36:10.846Z,10.73
2023-03-07T05:38:39.321Z,11.23
2023-03-07T05:41:07.224Z,14.63
2023-03-07T05:43:35.340Z,10.82
2023-03-07T05:46:03.543Z,11.00
2023-03-07T05:48:31.668Z,10.48
2023-03-07T05:51:01.535Z,11.23
2023-03-07T05:53:30.068Z,10.50
2023-03-07T05:55:58.124Z,10.68
2023-03-07T05:58:26.348Z,13.90
2023-03-07T06:00:54.474Z,11.57
2023-03-07T06:03:22.983Z,13.30
2023-03-07T06:05:51.173Z,10.38
2023-03-07T06:08:20.716Z,10.25
2023-03-07T06:10:50.827Z,10.93
2023-03-07T06:13:19.910Z,12.05
2023-03-07T06:15:50.289Z,12.38
2023-03-07T06:18:18.944Z,9.43
2023-03-07T06:21:03.274Z,10.38
2023-03-07T06:23:36.729Z,13.50
2023-03-07T06:26:10.289Z,11.98
2023-03-07T06:28:38.586Z,15.27
2023-03-07T06:31:09.731Z,9.98
2023-03-07T06:33:37.879Z,10.85
2023-03-07T06:36:07.499Z,11.23
2023-03-07T06:38:36.893Z,19.65
2023-03-07T06:41:05.293Z,65.82
2023-03-07T06:43:33.761Z,38.95
2023-03-07T06:46:02.280Z,53.33
2023-03-07T06:48:34.995Z,58.25
2023-03-07T06:51:08.133Z,41.72
2023-03-07T06:53:37.943Z,68.13
2023-03-07T06:56:06.399Z,63.03
2023-03-07T06:58:35.520Z,55.45
2023-03-07T07:01:03.771Z,49.00
2023-03-07T07:03:34.729Z,45.20
2023-03-07T07:06:03.623Z,43.95
2023-03-07T07:08:32.425Z,42.88
2023-03-07T07:11:01.820Z,39.42
2023-03-07T07:13:30.983Z,45.28
2023-03-07T07:16:01.439Z,66.22
2023-03-07T07:18:29.416Z,65.63
2023-03-07T07:20:57.481Z,50.85
2023-03-07T07:23:27.452Z,43.63
2023-03-07T07:25:55.781Z,46.08
2023-03-07T07:28:25.142Z,37.53
2023-03-07T07:30:53.486Z,43.42
2023-03-07T07:33:21.512Z,32.45
2023-03-07T07:35:51.963Z,32.08
2023-03-07T07:38:20.269Z,34.78
2023-03-07T07:40:48.513Z,33.22
2023-03-07T07:43:17.617Z,36.60
2023-03-07T07:45:57.916Z,28.15
2023-03-07T07:48:26.124Z,22.80
2023-03-07T07:50:54.568Z,26.10
2023-03-07T07:53:22.791Z,30.75
2023-03-07T07:55:51.115Z,28.75
2023-03-07T07:58:19.206Z,24.88
2023-03-07T08:00:47.759Z,29.02
2023-03-07T08:03:17.255Z,28.77
2023-03-07T08:05:45.677Z,26.17
2023-03-07T08:08:13.565Z,28.77
2023-03-07T08:10:43.126Z,25.73
2023-03-07T08:13:13.441Z,24.42
2023-03-07T08:15:41.367Z,23.63
2023-03-07T08:18:10.843Z,28.10
2023-03-07T08:20:41.289Z,25.58
2023-03-07T08:23:09.474Z,24.17
2023-03-07T08:25:37.536Z,23.58
2023-03-07T08:28:05.561Z,22.98
2023-03-07T08:30:34.547Z,22.45
2023-03-07T08:33:02.517Z,22.27
2023-03-07T08:35:30.505Z,22.98
2023-03-07T08:38:00.650Z,24.02
2023-03-07T08:40:28.708Z,22.98
2023-03-07T08:42:56.592Z,18.83
2023-03-07T08:45:24.639Z,20.33
2023-03-07T08:47:53.878Z,20.40
2023-03-07T08:50:21.850Z,18.88
2023-03-07T08:52:49.861Z,21.85
2023-03-07T08:55:19.347Z,22.02
2023-03-07T08:57:47.486Z,20.10
2023-03-07T09:00:17.803Z,20.90
2023-03-07T09:02:45.726Z,19.05
2023-03-07T09:05:14.001Z,17.83
2023-03-07T09:07:42.395Z,18.80
2023-03-07T09:10:11.831Z,19.13
2023-03-07T09:12:41.112Z,17.42
2023-03-07T09:15:10.362Z,16.20
2023-03-07T09:17:38.381Z,19.60
2023-03-07T09:20:07.396Z,17.50
2023-03-07T09:22:35.364Z,24.25
2023-03-07T09:25:03.972Z,49.40
2023-03-07T09:27:31.886Z,52.72
2023-03-07T09:30:01.207Z,64.38
2023-03-07T09:32:29.190Z,65.38
2023-03-07T09:34:57.324Z,77.72
2023-03-07T09:37:25.273Z,66.00
2023-03-07T09:39:53.207Z,57.35
2023-03-07T09:42:22.901Z,55.92
2023-03-07T09:45:04.484Z,55.75
2023-03-07T09:48:09.990Z,57.65
2023-03-07T09:50:41.908Z,54.72
2023-03-07T09:53:14.009Z,54.03
2023-03-07T09:55:41.961Z,51.97
2023-03-07T09:58:16.103Z,44.28
2023-03-07T10:00:46.968Z,44.28
2023-03-07T10:03:22.124Z,47.80
2023-03-07T10:05:50.729Z,41.85
2023-03-07T10:08:20.876Z,41.15
2023-03-07T10:10:50.716Z,35.97
2023-03-07T10:13:32.976Z,37.33
2023-03-07T10:16:02.950Z,34.83
2023-03-07T10:18:41.488Z,31.13
2023-03-07T10:21:15.848Z,36.60
2023-03-07T10:24:04.750Z,36.67
2023-03-07T10:26:34.082Z,35.20
2023-03-07T10:29:03.211Z,35.05
2023-03-07T10:31:34.576Z,32.15
2023-03-07T10:34:02.700Z,31.00
2023-03-07T10:36:34.645Z,37.70
2023-03-07T10:39:04.344Z,26.60
2023-03-07T10:41:32.379Z,33.05
2023-03-07T10:44:00.311Z,24.98
2023-03-07T10:46:30.141Z,27.80
2023-03-07T10:49:02.747Z,26.52
2023-03-07T10:51:39.537Z,26.52
2023-03-07T10:54:07.519Z,25.83
2023-03-07T10:56:35.704Z,24.35
2023-03-07T10:59:05.450Z,26.38
2023-03-07T11:01:33.831Z,25.65
2023-03-07T11:04:05.007Z,25.67
2023-03-07T11:06:37.825Z,27.40
2023-03-07T11:09:19.977Z,23.00
2023-03-07T11:11:54.012Z,26.38
2023-03-07T11:14:22.868Z,21.52
2023-03-07T11:16:52.226Z,22.48
2023-03-07T11:19:33.524Z,24.08
2023-03-07T11:22:03.529Z,20.90
2023-03-07T11:24:32.717Z,22.15
2023-03-07T11:27:00.976Z,24.15
2023-03-07T11:29:29.377Z,20.13
2023-03-07T11:32:04.057Z,18.75
2023-03-07T11:34:38.011Z,24.33
2023-03-07T11:37:28.250Z,25.20
2023-03-07T11:40:04.474Z,17.52
2023-03-07T11:42:34.522Z,20.30
2023-03-07T11:45:05.244Z,20.67
2023-03-07T11:47:38.733Z,18.65
2023-03-07T11:50:15.211Z,20.05
2023-03-07T11:53:03.926Z,17.13
2023-03-07T11:55:35.611Z,20.40
2023-03-07T11:58:12.058Z,19.02
2023-03-07T12:00:48.589Z,19.73
2023-03-07T12:03:33.494Z,13.77
2023-03-07T12:06:21.415Z,15.68
2023-03-07T12:08:56.981Z,14.00
2023-03-07T12:11:32.606Z,16.05
2023-03-07T12:14:04.969Z,16.38
2023-03-07T12:16:38.954Z,22.08
2023-03-07T12:19:29.193Z,14.02
2023-03-07T12:22:13.768Z,14.70
2023-03-07T12:24:43.710Z,15.38
2023-03-07T12:27:13.426Z,14.30
2023-03-07T12:29:42.193Z,12.77
2023-03-07T12:32:12.417Z,14.45
2023-03-07T12:34:42.009Z,18.20
2023-03-07T12:37:12.262Z,15.13
2023-03-07T12:39:46.150Z,16.42
2023-03-07T12:42:16.507Z,13.35
2023-03-07T12:44:45.408Z,14.02
2023-03-07T12:47:17.978Z,15.63
2023-03-07T12:49:50.499Z,13.77
2023-03-07T12:52:26.057Z,13.10
2023-03-07T12:54:57.517Z,15.38
2023-03-07T12:57:27.983Z,16.83
2023-03-07T12:59:57.512Z,14.43
2023-03-07T13:02:26.439Z,22.13
2023-03-07T13:04:54.460Z,19.58
2023-03-07T13:07:25.335Z,20.45
2023-03-07T13:09:53.838Z,17.30
2023-03-07T13:12:32.632Z,24.38
2023-03-07T13:15:00.786Z,21.25
2023-03-07T13:18:00.568Z,20.67
2023-03-07T13:21:07.106Z,17.65
2023-03-07T13:23:36.560Z,15.82
2023-03-07T13:26:12.268Z,19.08
2023-03-07T13:28:44.808Z,16.00
2023-03-07T13:31:30.773Z,20.98
2023-03-07T13:33:58.660Z,16.75
2023-03-07T13:36:37.785Z,19.23
2023-03-07T13:39:35.623Z,17.30
2023-03-07T13:42:03.549Z,16.40
2023-03-07T13:44:37.638Z,14.65
2023-03-07T13:47:05.834Z,15.85
2023-03-07T13:49:46.349Z,15.77
2023-03-07T13:52:36.709Z,15.30
2023-03-07T13:55:15.771Z,18.50
2023-03-07T13:57:43.763Z,19.98
2023-03-07T14:00:28.442Z,15.73
2023-03-07T14:02:56.350Z,17.98
2023-03-07T14:05:24.263Z,18.27
2023-03-07T14:07:53.013Z,15.95
2023-03-07T14:10:24.715Z,17.27
2023-03-07T14:13:22.715Z,13.05
2023-03-07T14:15:58.220Z,14.63
2023-03-07T14:18:32.836Z,17.05
2023-03-07T14:21:05.779Z,15.32
2023-03-07T14:24:02.828Z,14.30
2023-03-07T14:26:33.654Z,14.77
2023-03-07T14:29:02.321Z,17.33
2023-03-07T14:31:31.399Z,13.98
2023-03-07T14:33:59.731Z,15.55
2023-03-07T14:36:28.825Z,13.10
2023-03-07T14:38:58.386Z,15.80
2023-03-07T14:41:37.965Z,13.88
2023-03-07T14:44:24.851Z,12.55
2023-03-07T14:47:00.997Z,12.43
2023-03-07T14:49:32.665Z,10.93
2023-03-07T14:52:00.610Z,12.30
2023-03-07T14:54:31.072Z,11.77
2023-03-07T14:57:01.042Z,13.80
2023-03-07T14:59:29.639Z,11.30
2023-03-07T15:01:57.712Z,14.32
2023-03-07T15:04:27.945Z,13.95
2023-03-07T15:06:56.906Z,12.65
2023-03-07T15:09:25.866Z,14.40
2023-03-07T15:11:56.744Z,18.95
2023-03-07T15:14:30.704Z,17.13
2023-03-07T15:16:59.682Z,23.27
2023-03-07T15:19:30.012Z,14.63
2023-03-07T15:21:58.942Z,11.30
2023-03-07T15:24:29.255Z,14.02
2023-03-07T15:26:57.326Z,11.15
2023-03-07T15:29:27.420Z,13.80
2023-03-07T15:31:57.678Z,13.43
2023-03-07T15:34:26.760Z,15.48
2023-03-07T15:36:54.700Z,22.80
2023-03-07T15:39:33.046Z,20.20
2023-03-07T15:42:02.205Z,17.67
2023-03-07T15:44:31.553Z,21.25
2023-03-07T15:47:00.476Z,12.40
2023-03-07T15:49:32.007Z,13.05
2023-03-07T15:52:00.190Z,14.25
2023-03-07T15:54:36.875Z,10.32
2023-03-07T15:57:06.881Z,13.77
2023-03-07T15:59:37.894Z,16.90
2023-03-07T16:02:44.055Z,15.82
2023-03-07T16:05:29.865Z,17.90
2023-03-07T16:07:58.349Z,14.60
2023-03-07T16:10:27.805Z,16.17
2023-03-07T16:12:55.838Z,15.15
2023-03-07T16:15:25.154Z,12.52
2023-03-07T16:17:55.029Z,12.45
2023-03-07T16:20:24.946Z,11.73
2023-03-07T16:22:52.842Z,14.93
2023-03-07T16:25:21.582Z,15.02
2023-03-07T16:27:52.075Z,10.95
2023-03-07T16:30:20.934Z,14.68
2023-03-07T16:32:50.181Z,9.70
2023-03-07T16:35:18.984Z,15.23
2023-03-07T16:37:46.957Z,11.27
2023-03-07T16:40:16.177Z,14.68
2023-03-07T16:42:44.857Z,11.63
2023-03-07T16:45:20.943Z,14.15
2023-03-07T16:47:53.129Z,10.93
2023-03-07T16:50:22.247Z,9.32
2023-03-07T16:52:50.142Z,10.10
2023-03-07T16:55:18.387Z,10.45
2023-03-07T16:57:46.761Z,7.93
2023-03-07T17:00:17.247Z,9.65
2023-03-07T17:02:45.445Z,12.10
2023-03-07T17:05:18.810Z,9.30
2023-03-07T17:07:46.699Z,9.95
2023-03-07T17:10:14.853Z,8.95
2023-03-07T17:12:43.109Z,10.23
2023-03-07T17:15:12.539Z,8.85
2023-03-07T17:17:40.443Z,15.98
2023-03-07T17:20:09.680Z,8.70
2023-03-07T17:22:38.969Z,9.98
2023-03-07T17:25:07.762Z,9.93
2023-03-07T17:27:35.798Z,9.30
2023-03-07T17:30:03.823Z,9.20
2023-03-07T17:32:31.845Z,8.55
2023-03-07T17:34:59.899Z,8.10
2023-03-07T17:37:28.455Z,17.92
2023-03-07T17:39:58.329Z,8.93
2023-03-07T17:42:26.283Z,9.80
2023-03-07T17:44:54.171Z,12.85
2023-03-07T17:47:22.116Z,8.52
2023-03-07T17:49:50.348Z,9.85
2023-03-07T17:52:18.230Z,9.35
2023-03-07T17:54:46.618Z,6.35
2023-03-07T17:57:15.942Z,7.43
2023-03-07T17:59:43.946Z,6.75
2023-03-07T18:02:12.758Z,8.77
2023-03-07T18:04:40.770Z,11.10
2023-03-07T18:07:08.712Z,9.32
2023-03-07T18:09:36.672Z,7.75
2023-03-07T18:12:04.850Z,8.18
2023-03-07T18:14:34.097Z,6.90
2023-03-07T18:17:02.044Z,8.80
2023-03-07T18:19:30.154Z,6.80
2023-03-07T18:21:58.206Z,8.82
2023-03-07T18:24:27.325Z,7.20
2023-03-07T18:26:55.645Z,9.63
2023-03-07T18:29:23.916Z,7.00
2023-03-07T18:31:53.266Z,7.20
2023-03-07T18:34:21.265Z,8.65
2023-03-07T18:36:51.605Z,6.28
2023-03-07T18:39:19.780Z,5.97
2023-03-07T18:41:47.779Z,7.70
2023-03-07T18:44:18.328Z,6.40
2023-03-07T18:46:47.061Z,6.13
2023-03-07T18:49:20.779Z,4.95
2023-03-07T18:51:49.107Z,10.23
2023-03-07T18:54:17.230Z,8.02
2023-03-07T18:56:46.807Z,5.20
2023-03-07T18:59:14.770Z,6.30
2023-03-07T19:01:42.862Z,8.05
2023-03-07T19:04:11.590Z,8.05
2023-03-07T19:06:41.598Z,6.13
2023-03-07T19:09:09.687Z,6.10
2023-03-07T19:11:37.741Z,6.28
2023-03-07T19:14:05.659Z,6.63
2023-03-07T19:16:33.686Z,7.43
2023-03-07T19:19:01.820Z,5.88
2023-03-07T19:21:30.147Z,8.02
2023-03-07T19:24:01.195Z,6.75
2023-03-07T19:26:29.231Z,7.47
2023-03-07T19:28:57.960Z,7.18
2023-03-07T19:31:27.598Z,6.28
2023-03-07T19:33:56.336Z,6.85
2023-03-07T19:36:27.068Z,5.75
2023-03-07T19:38:56.472Z,7.35
2023-03-07T19:41:26.423Z,7.18
2023-03-07T19:43:54.477Z,5.95
2023-03-07T19:46:22.573Z,6.32
2023-03-07T19:48:50.528Z,6.03
2023-03-07T19:51:19.342Z,5.45
2023-03-07T19:53:47.931Z,6.22
2023-03-07T19:56:17.888Z,8.30
2023-03-07T19:58:47.141Z,6.40
2023-03-07T20:01:15.898Z,5.88
2023-03-07T20:03:43.836Z,7.40
2023-03-07T20:06:13.051Z,6.97
2023-03-07T20:08:41.174Z,5.35
2023-03-07T20:11:10.806Z,5.28
2023-03-07T20:13:38.928Z,7.10
2023-03-07T20:16:10.508Z,6.90
2023-03-07T20:18:38.787Z,8.90
2023-03-07T20:21:07.840Z,5.93
2023-03-07T20:23:36.032Z,6.60
2023-03-07T20:26:05.762Z,6.53
2023-03-07T20:28:33.868Z,6.22
2023-03-07T20:31:02.553Z,9.13
2023-03-07T20:33:31.794Z,5.85
2023-03-07T20:36:04.881Z,6.40
2023-03-07T20:38:33.391Z,6.32
2023-03-07T20:41:02.919Z,10.40
2023-03-07T20:43:31.683Z,7.45
2023-03-07T20:46:03.381Z,5.82
2023-03-07T20:48:32.700Z,6.45
2023-03-07T20:51:06.102Z,7.38
2023-03-07T20:53:34.431Z,8.25
2023-03-07T20:56:02.795Z,7.43
2023-03-07T20:58:30.836Z,13.90
2023-03-07T21:00:58.821Z,8.30
2023-03-07T21:03:26.751Z,7.47
2023-03-07T21:05:56.189Z,6.47
2023-03-07T21:08:24.201Z,8.20
2023-03-07T21:10:59.155Z,8.75
2023-03-07T21:13:27.208Z,10.80
2023-03-07T21:15:55.375Z,20.13
2023-03-07T21:18:23.467Z,16.83
2023-03-07T21:20:51.399Z,20.45
2023-03-07T21:23:20.628Z,14.52
2023-03-07T21:25:48.518Z,20.13
2023-03-07T21:28:16.421Z,22.50
2023-03-07T21:30:44.311Z,22.48
2023-03-07T21:33:12.311Z,19.10
2023-03-07T21:35:40.296Z,12.45
2023-03-07T21:38:08.266Z,11.68
2023-03-07T21:40:37.541Z,18.48
2023-03-07T21:43:05.445Z,23.38
2023-03-07T21:45:33.693Z,18.55
2023-03-07T21:48:01.691Z,26.95
2023-03-07T21:50:29.631Z,53.13
2023-03-07T21:52:57.514Z,68.53
2023-03-07T21:55:25.575Z,56.30
2023-03-07T21:57:54.834Z,54.70
2023-03-07T22:00:23.642Z,52.95
2023-03-07T22:02:51.558Z,53.33
2023-03-07T22:05:22.614Z,49.28
2023-03-07T22:07:50.610Z,41.75
2023-03-07T22:10:19.433Z,34.38
2023-03-07T22:12:47.560Z,39.95
2023-03-07T22:15:16.950Z,36.85
2023-03-07T22:17:44.832Z,43.17
2023-03-07T22:20:13.407Z,34.42
2023-03-07T22:22:41.259Z,35.25
2023-03-07T22:25:09.885Z,31.88
2023-03-07T22:27:38.298Z,28.33
2023-03-07T22:30:06.814Z,26.27
2023-03-07T22:32:36.096Z,21.15
2023-03-07T22:35:04.087Z,35.55
2023-03-07T22:37:32.008Z,24.83
2023-03-07T22:40:00.181Z,26.48
2023-03-07T22:42:28.144Z,24.60
2023-03-07T22:44:56.001Z,21.60
2023-03-07T22:47:23.883Z,11.32
2023-03-07T22:49:53.148Z,14.85
2023-03-07T22:52:21.045Z,16.33
2023-03-07T22:54:48.923Z,21.55
2023-03-07T22:57:16.800Z,20.40
2023-03-07T22:59:44.693Z,15.73
2023-03-07T23:02:12.618Z,20.95
2023-03-07T23:04:40.510Z,16.75
2023-03-07T23:07:09.759Z,13.65
2023-03-07T23:09:37.589Z,17.42
2023-03-07T23:12:06.053Z,13.18
2023-03-07T23:14:33.978Z,16.95
2023-03-07T23:17:01.937Z,12.07
2023-03-07T23:19:31.562Z,18.50
2023-03-07T23:21:59.544Z,13.18
2023-03-07T23:24:28.795Z,15.02
2023-03-07T23:26:56.653Z,11.77
2023-03-07T23:29:24.525Z,13.77
2023-03-07T23:31:52.474Z,16.77
2023-03-07T23:34:20.925Z,11.23
2023-03-07T23:36:49.084Z,9.98
2023-03-07T23:39:17.474Z,10.25
2023-03-07T23:41:47.170Z,8.57
2023-03-07T23:44:15.241Z,8.25
2023-03-07T23:46:43.116Z,11.68
2023-03-07T23:49:11.176Z,10.63
2023-03-07T23:51:39.093Z,8.07
2023-03-07T23:54:07.029Z,9.13
2023-03-07T23:56:34.953Z,9.25
2023-03-07T23:59:04.177Z,9.65
